createdAt,value
2023-04-12T00:04:15.167Z,100297.09
2023-04-12T00:09:38.887Z,100276.69
2023-04-12T00:15:02.056Z,100288.66
2023-04-12T00:20:25.375Z,100293.72
2023-04-12T00:25:47.595Z,100284.94
2023-04-12T00:31:09.713Z,100302.03
2023-04-12T00:36:31.994Z,100297.75
2023-04-12T00:42:05.209Z,100257.00
2023-04-12T00:47:41.804Z,100260.69
2023-04-12T00:53:22.093Z,100286.66
2023-04-12T01:05:21.354Z,100287.13
2023-04-12T01:11:19.180Z,100298.34
2023-04-12T01:17:10.518Z,100252.09
2023-04-12T01:23:21.869Z,100288.28
2023-04-12T01:28:57.527Z,100270.41
2023-04-12T01:34:28.209Z,100260.28
2023-04-12T01:39:51.558Z,100288.75
2023-04-12T01:45:13.867Z,100300.53
2023-04-12T01:51:07.057Z,100304.19
2023-04-12T01:56:35.950Z,100283.91
2023-04-12T02:02:00.351Z,100287.78
2023-04-12T02:07:23.393Z,100281.81
2023-04-12T02:12:45.352Z,100286.25
2023-04-12T02:18:08.094Z,100284.41
2023-04-12T02:23:31.197Z,100282.41
2023-04-12T02:28:54.035Z,100277.53
2023-04-12T02:34:19.179Z,100278.34
2023-04-12T02:39:46.749Z,100281.22
2023-04-12T02:45:12.033Z,100262.53
2023-04-12T02:50:37.985Z,100282.22
2023-04-12T02:56:09.740Z,100266.94
2023-04-12T03:01:32.642Z,100262.88
2023-04-12T03:07:11.699Z,100279.09
2023-04-12T03:12:44.179Z,100279.38
2023-04-12T03:18:17.722Z,100276.19
2023-04-12T03:23:43.963Z,100281.56
2023-04-12T03:29:12.740Z,100276.56
2023-04-12T03:34:37.220Z,100285.00
2023-04-12T03:40:08.118Z,100291.34
2023-04-12T03:45:31.419Z,100293.03
2023-04-12T03:50:57.551Z,100290.19
2023-04-12T03:56:21.790Z,100300.34
2023-04-12T04:01:48.528Z,100286.91
2023-04-12T04:07:12.507Z,100299.31
2023-04-12T04:12:40.085Z,100299.28
2023-04-12T04:18:06.110Z,100283.34
2023-04-12T04:23:39.850Z,100284.91
2023-04-12T04:29:05.799Z,100294.53
2023-04-12T04:34:34.784Z,100262.84
2023-04-12T04:40:12.157Z,100299.44
2023-04-12T04:45:34.466Z,100299.88
2023-04-12T04:50:57.206Z,100286.59
2023-04-12T04:56:19.530Z,100279.81
2023-04-12T05:01:47.870Z,100287.09
2023-04-12T05:07:13.729Z,100288.22
2023-04-12T05:12:38.899Z,100282.22
2023-04-12T05:18:01.235Z,100285.78
2023-04-12T05:23:25.327Z,100292.91
2023-04-12T05:28:47.763Z,100295.19
2023-04-12T05:34:11.406Z,100284.47
2023-04-12T05:39:45.558Z,100268.00
2023-04-12T05:45:10.967Z,100289.34
2023-04-12T05:50:33.303Z,100278.44
2023-04-12T05:55:56.301Z,100293.06
2023-04-12T06:01:20.502Z,100288.91
2023-04-12T06:06:44.231Z,100283.53
2023-04-12T06:12:06.875Z,100286.72
2023-04-12T06:17:31.547Z,100281.25
2023-04-12T06:22:54.120Z,100287.28
2023-04-12T06:28:17.032Z,100289.63
2023-04-12T06:33:46.087Z,100300.28
2023-04-12T06:39:10.352Z,100299.28
2023-04-12T06:44:33.880Z,100285.84
2023-04-12T06:49:58.527Z,100295.13
2023-04-12T06:55:20.656Z,100301.25
2023-04-12T07:00:42.776Z,100288.00
2023-04-12T07:06:14.073Z,100291.84
2023-04-12T07:11:46.419Z,100286.00
2023-04-12T07:17:08.990Z,100284.31
2023-04-12T07:22:31.039Z,100284.63
2023-04-12T07:27:53.231Z,100274.75
2023-04-12T07:33:19.609Z,100275.84
2023-04-12T07:38:42.398Z,100269.50
2023-04-12T07:44:05.735Z,100272.34
2023-04-12T07:49:28.159Z,100278.63
2023-04-12T07:54:50.149Z,100275.25
2023-04-12T08:00:14.988Z,100260.09
2023-04-12T08:05:36.754Z,100264.91
2023-04-12T08:10:59.129Z,100269.88
2023-04-12T08:16:21.587Z,100260.09
2023-04-12T08:21:44.109Z,100266.03
2023-04-12T08:27:06.199Z,100266.81
2023-04-12T08:32:28.373Z,100265.06
2023-04-12T08:38:04.563Z,100256.44
2023-04-12T08:43:29.838Z,100263.75
2023-04-12T08:48:55.613Z,100252.38
2023-04-12T08:54:17.688Z,100249.63
2023-04-12T08:59:42.944Z,100245.00
2023-04-12T09:05:07.320Z,100240.59
2023-04-12T09:10:37.866Z,100238.16
2023-04-12T09:16:00.583Z,100224.16
2023-04-12T09:21:22.449Z,100222.03
2023-04-12T09:26:44.800Z,100201.28
2023-04-12T09:32:09.782Z,100211.53
2023-04-12T09:37:32.219Z,100194.16
2023-04-12T09:42:54.870Z,100181.63
2023-04-12T09:48:24.168Z,100183.06
2023-04-12T09:53:50.147Z,100194.66
2023-04-12T09:59:14.113Z,100177.50
2023-04-12T10:04:40.917Z,100164.19
2023-04-12T10:10:05.605Z,100185.13
2023-04-12T10:15:41.673Z,100149.03
2023-04-12T10:21:07.799Z,100172.03
2023-04-12T10:26:30.963Z,100173.75
2023-04-12T10:32:23.583Z,100158.28
2023-04-12T10:43:42.214Z,100176.34
2023-04-12T10:49:15.208Z,100170.06
2023-04-12T10:54:38.988Z,100162.47
2023-04-12T11:00:03.898Z,100158.59
2023-04-12T11:05:28.911Z,100160.19
2023-04-12T11:11:06.459Z,100146.50
2023-04-12T11:16:32.600Z,100125.91
2023-04-12T11:21:55.345Z,100124.25
2023-04-12T11:27:18.827Z,100122.03
2023-04-12T11:32:42.968Z,100127.50
2023-04-12T11:38:05.117Z,100118.38
2023-04-12T11:43:22.286Z,100091.22
2023-04-12T11:48:47.333Z,100103.41
2023-04-12T11:54:09.197Z,100088.81
2023-04-12T11:59:35.429Z,100075.31
2023-04-12T12:04:58.423Z,100079.81
2023-04-12T12:10:36.587Z,100085.56
2023-04-12T12:16:08.755Z,100085.50
2023-04-12T12:21:32.458Z,100075.03
2023-04-12T12:26:56.386Z,100071.00
2023-04-12T12:32:20.403Z,100063.75
2023-04-12T12:37:59.967Z,100062.63
2023-04-12T12:43:22.420Z,100056.53
2023-04-12T12:48:45.270Z,100059.81
2023-04-12T12:54:08.806Z,100041.66
2023-04-12T12:59:34.127Z,100044.97
2023-04-12T13:04:55.841Z,100047.94
2023-04-12T13:28:21.828Z,100013.13
2023-04-12T13:34:09.142Z,99979.50
2023-04-12T13:39:33.856Z,100006.53
2023-04-12T13:44:59.229Z,100012.34
2023-04-12T13:50:21.980Z,100011.31
2023-04-12T13:55:44.228Z,100000.88
2023-04-12T14:01:09.242Z,100007.97
2023-04-12T14:06:33.209Z,99983.69
2023-04-12T14:11:58.065Z,99988.66
2023-04-12T14:17:22.417Z,99985.59
2023-04-12T14:22:51.913Z,99970.44
2023-04-12T14:28:18.785Z,99980.94
2023-04-12T14:33:48.626Z,99975.72
2023-04-12T14:45:19.035Z,99960.00
2023-04-12T14:50:42.611Z,100006.31
2023-04-12T14:56:15.286Z,99963.91
2023-04-12T15:01:38.412Z,100005.88
2023-04-12T15:07:00.887Z,99963.34
2023-04-12T15:12:23.305Z,99951.19
2023-04-12T15:17:46.834Z,99959.75
2023-04-12T15:23:16.626Z,100009.03
2023-04-12T15:28:43.079Z,99987.88
2023-04-12T15:34:07.946Z,99965.88
2023-04-12T15:39:30.652Z,100008.69
2023-04-12T15:44:52.716Z,100022.69
2023-04-12T15:50:15.076Z,100011.13
2023-04-12T15:55:37.432Z,99994.78
2023-04-12T16:01:00.667Z,100020.88
2023-04-12T16:06:24.993Z,100008.69
2023-04-12T16:11:49.546Z,100020.44
2023-04-12T16:17:13.268Z,100034.59
2023-04-12T16:22:36.489Z,100006.88
2023-04-12T16:28:03.636Z,100013.03
2023-04-12T16:33:26.055Z,100023.19
2023-04-12T16:38:50.899Z,100022.75
2023-04-12T16:44:19.748Z,100014.75
2023-04-12T16:49:43.259Z,100006.00
2023-04-12T16:55:12.533Z,100019.44
2023-04-12T17:00:42.935Z,100014.31
2023-04-12T17:06:06.533Z,100004.88
2023-04-12T17:11:35.120Z,100009.09
2023-04-12T17:17:06.680Z,100010.06
2023-04-12T17:22:33.003Z,100012.34
2023-04-12T17:28:01.762Z,100008.13
2023-04-12T17:33:37.961Z,100006.03
2023-04-12T17:39:16.319Z,99988.72
2023-04-12T17:44:40.214Z,99991.47
2023-04-12T17:50:10.766Z,99998.72
2023-04-12T17:55:39.723Z,100019.94
2023-04-12T18:01:02.735Z,100049.44
2023-04-12T18:06:25.135Z,100052.66
2023-04-12T18:11:47.431Z,100038.44
2023-04-12T18:17:11.859Z,100034.16
2023-04-12T18:22:33.607Z,100042.97
2023-04-12T18:27:56.210Z,100039.97
2023-04-12T18:33:18.642Z,100042.13
2023-04-12T18:38:44.629Z,100031.31
2023-04-12T18:44:09.405Z,100047.88
2023-04-12T18:49:31.833Z,100050.00
2023-04-12T18:54:53.793Z,100065.16
2023-04-12T19:00:16.627Z,100039.59
2023-04-12T19:05:39.120Z,100057.78
2023-04-12T19:11:02.238Z,100063.88
2023-04-12T19:16:24.976Z,100058.06
2023-04-12T19:21:47.107Z,100060.94
2023-04-12T19:27:09.668Z,100061.28
2023-04-12T19:32:31.630Z,100044.34
2023-04-12T19:37:56.647Z,100056.84
2023-04-12T19:43:21.970Z,100042.69
2023-04-12T19:48:43.567Z,100058.16
2023-04-12T19:54:05.659Z,100060.16
2023-04-12T19:59:31.255Z,100062.91
2023-04-12T20:04:54.212Z,100059.59
2023-04-12T20:10:16.740Z,100069.72
2023-04-12T20:15:39.429Z,100071.69
2023-04-12T20:21:01.032Z,100072.13
2023-04-12T20:26:23.547Z,100078.50
2023-04-12T20:31:48.419Z,100075.56
2023-04-12T20:37:10.408Z,100093.50
2023-04-12T20:42:36.298Z,100060.00
2023-04-12T20:48:08.651Z,100078.31
2023-04-12T20:53:32.525Z,100074.63
2023-04-12T20:59:04.983Z,100083.81
2023-04-12T21:04:36.749Z,100075.56
2023-04-12T21:10:02.897Z,100076.03
2023-04-12T21:15:29.156Z,100077.25
2023-04-12T21:21:00.441Z,100082.66
2023-04-12T21:26:23.297Z,100093.38
2023-04-12T21:31:55.856Z,100089.06
2023-04-12T21:37:22.819Z,100084.66
2023-04-12T21:42:47.271Z,100102.41
2023-04-12T21:48:09.184Z,100112.84
2023-04-12T21:53:31.558Z,100109.34
2023-04-12T21:58:53.811Z,100092.84
2023-04-12T22:04:16.038Z,100109.50
2023-04-12T22:09:38.227Z,100096.38
2023-04-12T22:15:00.401Z,100107.69
2023-04-12T22:20:22.362Z,100104.28
2023-04-12T22:25:46.048Z,100081.63
2023-04-12T22:31:08.843Z,100091.69
2023-04-12T22:36:37.748Z,100066.50
2023-04-12T22:42:00.487Z,100075.88
2023-04-12T22:47:22.236Z,100058.19
2023-04-12T22:52:44.238Z,100071.03
2023-04-12T22:58:06.314Z,100053.34
2023-04-12T23:03:29.464Z,100059.13
2023-04-12T23:08:51.513Z,100075.78
2023-04-12T23:14:14.522Z,100043.19
2023-04-12T23:19:36.853Z,100083.03
2023-04-12T23:25:02.653Z,100079.69
2023-04-12T23:30:30.306Z,100078.19
2023-04-12T23:36:03.330Z,100064.06
2023-04-12T23:41:28.161Z,100065.59
2023-04-12T23:46:49.954Z,100043.63
2023-04-12T23:52:12.162Z,100042.94
2023-04-12T23:57:34.115Z,100035.31
